sensor_id;sensor_type;location;lat;lon;timestamp;temperature;humidity
32865;DHT22;19219;44.500;11.188;2022-09-20T00:01:55;12.60;99.90
32865;DHT22;19219;44.500;11.188;2022-09-20T00:04:21;12.60;99.90
32865;DHT22;19219;44.500;11.188;2022-09-20T00:06:46;12.50;99.90
32865;DHT22;19219;44.500;11.188;2022-09-20T00:09:12;12.50;99.90
32865;DHT22;19219;44.500;11.188;2022-09-20T00:11:37;12.50;99.90
32865;DHT22;19219;44.500;11.188;2022-09-20T00:14:04;12.40;99.90
32865;DHT22;19219;44.500;11.188;2022-09-20T00:16:33;12.30;99.90
32865;DHT22;19219;44.500;11.188;2022-09-20T00:18:59;12.30;99.90
32865;DHT22;19219;44.500;11.188;2022-09-20T00:21:29;12.30;99.90
32865;DHT22;19219;44.500;11.188;2022-09-20T00:23:55;12.40;99.90
32865;DHT22;19219;44.500;11.188;2022-09-20T00:26:21;12.40;99.90
32865;DHT22;19219;44.500;11.188;2022-09-20T00:28:47;12.30;99.90
32865;DHT22;19219;44.500;11.188;2022-09-20T00:31:13;12.20;99.90
32865;DHT22;19219;44.500;11.188;2022-09-20T00:33:39;12.20;99.90
32865;DHT22;19219;44.500;11.188;2022-09-20T00:36:23;12.20;99.90
32865;DHT22;19219;44.500;11.188;2022-09-20T00:38:53;12.20;99.90
32865;DHT22;19219;44.500;11.188;2022-09-20T00:41:18;12.20;99.90
32865;DHT22;19219;44.500;11.188;2022-09-20T00:43:44;12.20;99.90
32865;DHT22;19219;44.500;11.188;2022-09-20T00:48:55;12.30;99.90
32865;DHT22;19219;44.500;11.188;2022-09-20T00:51:31;12.20;99.90
32865;DHT22;19219;44.500;11.188;2022-09-20T00:53:58;12.10;99.90
32865;DHT22;19219;44.500;11.188;2022-09-20T00:56:29;11.90;99.90
32865;DHT22;19219;44.500;11.188;2022-09-20T01:01:41;12.00;99.90
32865;DHT22;19219;44.500;11.188;2022-09-20T01:04:07;11.80;99.90
32865;DHT22;19219;44.500;11.188;2022-09-20T01:06:33;11.70;99.90
32865;DHT22;19219;44.500;11.188;2022-09-20T01:08:59;11.80;99.90
32865;DHT22;19219;44.500;11.188;2022-09-20T01:11:27;11.90;99.90
32865;DHT22;19219;44.500;11.188;2022-09-20T01:13:53;11.80;99.90
32865;DHT22;19219;44.500;11.188;2022-09-20T01:16:18;11.90;99.90
32865;DHT22;19219;44.500;11.188;2022-09-20T01:18:45;12.00;99.90
32865;DHT22;19219;44.500;11.188;2022-09-20T01:21:12;11.90;99.90
32865;DHT22;19219;44.500;11.188;2022-09-20T01:28:47;11.60;99.90
32865;DHT22;19219;44.500;11.188;2022-09-20T01:31:23;11.60;99.90
32865;DHT22;19219;44.500;11.188;2022-09-20T01:33:59;11.50;99.90
32865;DHT22;19219;44.500;11.188;2022-09-20T01:36:28;11.40;99.90
32865;DHT22;19219;44.500;11.188;2022-09-20T01:41:42;11.40;99.90
32865;DHT22;19219;44.500;11.188;2022-09-20T01:46:41;11.60;99.90
32865;DHT22;19219;44.500;11.188;2022-09-20T01:51:48;11.60;99.90
32865;DHT22;19219;44.500;11.188;2022-09-20T01:54:24;11.40;99.90
32865;DHT22;19219;44.500;11.188;2022-09-20T02:00:06;11.50;99.90
32865;DHT22;19219;44.500;11.188;2022-09-20T02:04:57;11.30;99.90
32865;DHT22;19219;44.500;11.188;2022-09-20T02:12:58;11.20;99.90
32865;DHT22;19219;44.500;11.188;2022-09-20T02:28:30;11.20;99.90
32865;DHT22;19219;44.500;11.188;2022-09-20T02:38:44;11.50;99.90
32865;DHT22;19219;44.500;11.188;2022-09-20T02:43:59;11.60;99.90
32865;DHT22;19219;44.500;11.188;2022-09-20T02:46:45;11.30;99.90
32865;DHT22;19219;44.500;11.188;2022-09-20T02:52:34;11.20;99.90
32865;DHT22;19219;44.500;11.188;2022-09-20T02:54:53;11.10;99.90
32865;DHT22;19219;44.500;11.188;2022-09-20T03:00:10;11.10;99.90
32865;DHT22;19219;44.500;11.188;2022-09-20T03:18:09;11.20;99.90
32865;DHT22;19219;44.500;11.188;2022-09-20T03:29:01;11.30;99.90
32865;DHT22;19219;44.500;11.188;2022-09-20T03:31:41;11.30;99.90
32865;DHT22;19219;44.500;11.188;2022-09-20T03:39:42;11.60;99.90
32865;DHT22;19219;44.500;11.188;2022-09-20T03:42:22;11.70;99.90
32865;DHT22;19219;44.500;11.188;2022-09-20T03:50:18;11.90;99.90
32865;DHT22;19219;44.500;11.188;2022-09-20T04:00:22;12.20;99.90
32865;DHT22;19219;44.500;11.188;2022-09-20T04:05:21;12.70;99.90
32865;DHT22;19219;44.500;11.188;2022-09-20T04:13:08;13.30;99.90
32865;DHT22;19219;44.500;11.188;2022-09-20T04:15:40;13.40;99.90
32865;DHT22;19219;44.500;11.188;2022-09-20T04:20:56;14.80;99.90
32865;DHT22;19219;44.500;11.188;2022-09-20T04:23:31;13.70;99.90
32865;DHT22;19219;44.500;11.188;2022-09-20T04:26:00;13.70;99.90
32865;DHT22;19219;44.500;11.188;2022-09-20T04:28:27;13.80;99.90
32865;DHT22;19219;44.500;11.188;2022-09-20T04:30:57;13.90;99.90
32865;DHT22;19219;44.500;11.188;2022-09-20T04:33:28;14.00;99.90
32865;DHT22;19219;44.500;11.188;2022-09-20T04:38:40;14.10;99.90
32865;DHT22;19219;44.500;11.188;2022-09-20T04:52:44;14.20;99.90
32865;DHT22;19219;44.500;11.188;2022-09-20T04:54:56;14.20;99.90
32865;DHT22;19219;44.500;11.188;2022-09-20T05:00:05;14.30;99.90
32865;DHT22;19219;44.500;11.188;2022-09-20T05:28:25;14.80;99.90
32865;DHT22;19219;44.500;11.188;2022-09-20T05:30:58;14.70;99.90
32865;DHT22;19219;44.500;11.188;2022-09-20T06:04:34;13.70;99.90
32865;DHT22;19219;44.500;11.188;2022-09-20T06:07:30;13.70;99.90
32865;DHT22;19219;44.500;11.188;2022-09-20T06:12:24;13.90;99.90
32865;DHT22;19219;44.500;11.188;2022-09-20T06:14:56;14.00;99.90
32865;DHT22;19219;44.500;11.188;2022-09-20T06:22:45;14.30;99.90
32865;DHT22;19219;44.500;11.188;2022-09-20T06:25:15;14.40;99.90
32865;DHT22;19219;44.500;11.188;2022-09-20T06:30:27;14.80;99.90
32865;DHT22;19219;44.500;11.188;2022-09-20T06:32:55;15.80;99.90
32865;DHT22;19219;44.500;11.188;2022-09-20T06:35:21;18.30;99.90
32865;DHT22;19219;44.500;11.188;2022-09-20T06:38:11;20.90;99.90
32865;DHT22;19219;44.500;11.188;2022-09-20T06:40:55;23.20;99.90
32865;DHT22;19219;44.500;11.188;2022-09-20T06:43:47;25.50;99.90
32865;DHT22;19219;44.500;11.188;2022-09-20T06:46:13;27.20;97.80
32865;DHT22;19219;44.500;11.188;2022-09-20T06:48:40;28.10;94.30
32865;DHT22;19219;44.500;11.188;2022-09-20T06:51:06;27.90;92.90
32865;DHT22;19219;44.500;11.188;2022-09-20T06:53:34;28.80;91.10
32865;DHT22;19219;44.500;11.188;2022-09-20T06:56:00;29.80;88.40
32865;DHT22;19219;44.500;11.188;2022-09-20T06:58:26;30.20;84.10
32865;DHT22;19219;44.500;11.188;2022-09-20T07:00:52;31.20;79.20
32865;DHT22;19219;44.500;11.188;2022-09-20T07:03:18;31.50;76.50
32865;DHT22;19219;44.500;11.188;2022-09-20T07:05:46;31.50;74.60
32865;DHT22;19219;44.500;11.188;2022-09-20T07:08:12;31.50;73.50
32865;DHT22;19219;44.500;11.188;2022-09-20T07:10:38;32.00;72.10
32865;DHT22;19219;44.500;11.188;2022-09-20T07:13:03;31.80;71.30
32865;DHT22;19219;44.500;11.188;2022-09-20T07:15:31;31.70;70.30
32865;DHT22;19219;44.500;11.188;2022-09-20T07:17:56;31.70;69.90
32865;DHT22;19219;44.500;11.188;2022-09-20T07:20:22;32.40;68.90
32865;DHT22;19219;44.500;11.188;2022-09-20T07:22:48;33.00;67.20
32865;DHT22;19219;44.500;11.188;2022-09-20T07:25:14;32.50;64.80
32865;DHT22;19219;44.500;11.188;2022-09-20T07:27:39;32.70;66.00
32865;DHT22;19219;44.500;11.188;2022-09-20T07:30:05;33.40;64.40
32865;DHT22;19219;44.500;11.188;2022-09-20T07:32:31;33.10;63.30
32865;DHT22;19219;44.500;11.188;2022-09-20T07:34:57;32.20;64.00
32865;DHT22;19219;44.500;11.188;2022-09-20T07:37:22;32.40;64.50
32865;DHT22;19219;44.500;11.188;2022-09-20T07:39:48;33.20;63.70
32865;DHT22;19219;44.500;11.188;2022-09-20T07:42:14;33.90;62.90
32865;DHT22;19219;44.500;11.188;2022-09-20T07:44:39;33.80;61.80
32865;DHT22;19219;44.500;11.188;2022-09-20T07:47:08;33.90;62.20
32865;DHT22;19219;44.500;11.188;2022-09-20T07:49:38;33.90;61.80
32865;DHT22;19219;44.500;11.188;2022-09-20T07:52:03;34.00;61.90
32865;DHT22;19219;44.500;11.188;2022-09-20T07:54:29;33.90;61.70
32865;DHT22;19219;44.500;11.188;2022-09-20T07:56:55;34.00;61.90
32865;DHT22;19219;44.500;11.188;2022-09-20T07:59:20;33.30;62.50
32865;DHT22;19219;44.500;11.188;2022-09-20T08:01:46;33.20;63.20
32865;DHT22;19219;44.500;11.188;2022-09-20T08:04:12;33.60;63.80
32865;DHT22;19219;44.500;11.188;2022-09-20T08:06:38;34.10;63.40
32865;DHT22;19219;44.500;11.188;2022-09-20T08:09:04;33.50;62.60
32865;DHT22;19219;44.500;11.188;2022-09-20T08:11:30;32.80;63.40
32865;DHT22;19219;44.500;11.188;2022-09-20T08:13:56;32.20;64.70
32865;DHT22;19219;44.500;11.188;2022-09-20T08:16:22;31.80;66.00
32865;DHT22;19219;44.500;11.188;2022-09-20T08:18:49;32.80;65.40
32865;DHT22;19219;44.500;11.188;2022-09-20T08:21:16;32.70;64.30
32865;DHT22;19219;44.500;11.188;2022-09-20T08:23:43;32.80;65.60
32865;DHT22;19219;44.500;11.188;2022-09-20T08:26:10;32.20;65.20
32865;DHT22;19219;44.500;11.188;2022-09-20T08:28:38;33.10;65.30
32865;DHT22;19219;44.500;11.188;2022-09-20T08:31:05;34.50;63.90
32865;DHT22;19219;44.500;11.188;2022-09-20T08:33:31;35.60;61.40
32865;DHT22;19219;44.500;11.188;2022-09-20T08:35:57;36.30;60.10
32865;DHT22;19219;44.500;11.188;2022-09-20T08:38:23;36.30;59.40
32865;DHT22;19219;44.500;11.188;2022-09-20T08:41:02;36.50;58.30
32865;DHT22;19219;44.500;11.188;2022-09-20T08:43:29;36.30;58.80
32865;DHT22;19219;44.500;11.188;2022-09-20T08:45:58;36.00;58.50
32865;DHT22;19219;44.500;11.188;2022-09-20T08:48:26;35.80;57.70
32865;DHT22;19219;44.500;11.188;2022-09-20T08:50:52;36.50;57.10
32865;DHT22;19219;44.500;11.188;2022-09-20T08:53:18;33.90;58.80
32865;DHT22;19219;44.500;11.188;2022-09-20T08:55:44;34.60;59.70
32865;DHT22;19219;44.500;11.188;2022-09-20T08:58:10;35.60;58.80
32865;DHT22;19219;44.500;11.188;2022-09-20T09:00:37;36.50;57.70
32865;DHT22;19219;44.500;11.188;2022-09-20T09:03:09;37.10;56.30
32865;DHT22;19219;44.500;11.188;2022-09-20T09:05:37;37.70;55.80
32865;DHT22;19219;44.500;11.188;2022-09-20T09:08:08;37.40;55.10
32865;DHT22;19219;44.500;11.188;2022-09-20T09:10:36;36.70;54.90
32865;DHT22;19219;44.500;11.188;2022-09-20T09:13:02;36.70;55.80
32865;DHT22;19219;44.500;11.188;2022-09-20T09:15:32;37.20;55.10
32865;DHT22;19219;44.500;11.188;2022-09-20T09:17:58;37.50;55.40
32865;DHT22;19219;44.500;11.188;2022-09-20T09:20:24;37.30;54.20
32865;DHT22;19219;44.500;11.188;2022-09-20T09:23:00;36.60;55.90
32865;DHT22;19219;44.500;11.188;2022-09-20T09:25:27;35.20;54.30
32865;DHT22;19219;44.500;11.188;2022-09-20T09:30:35;36.80;55.50
32865;DHT22;19219;44.500;11.188;2022-09-20T09:33:18;36.90;54.90
32865;DHT22;19219;44.500;11.188;2022-09-20T09:35:55;36.60;54.70
32865;DHT22;19219;44.500;11.188;2022-09-20T09:38:22;36.50;54.60
32865;DHT22;19219;44.500;11.188;2022-09-20T09:40:49;35.40;55.10
32865;DHT22;19219;44.500;11.188;2022-09-20T09:43:19;34.40;56.30
32865;DHT22;19219;44.500;11.188;2022-09-20T09:45:45;32.60;58.00
32865;DHT22;19219;44.500;11.188;2022-09-20T09:50:42;31.30;61.30
32865;DHT22;19219;44.500;11.188;2022-09-20T09:53:12;30.30;63.10
32865;DHT22;19219;44.500;11.188;2022-09-20T09:58:22;27.20;69.90
32865;DHT22;19219;44.500;11.188;2022-09-20T10:00:50;26.90;73.80
32865;DHT22;19219;44.500;11.188;2022-09-20T10:21:40;25.60;83.90
32865;DHT22;19219;44.500;11.188;2022-09-20T10:34:37;26.50;82.60
32865;DHT22;19219;44.500;11.188;2022-09-20T10:37:09;26.60;85.10
32865;DHT22;19219;44.500;11.188;2022-09-20T10:39:40;26.50;85.00
32865;DHT22;19219;44.500;11.188;2022-09-20T10:58:40;26.70;87.80
32865;DHT22;19219;44.500;11.188;2022-09-20T11:01:27;26.70;87.80
32865;DHT22;19219;44.500;11.188;2022-09-20T11:08:58;26.40;88.80
32865;DHT22;19219;44.500;11.188;2022-09-20T11:14:18;26.10;88.30
32865;DHT22;19219;44.500;11.188;2022-09-20T11:24:31;25.20;90.40
32865;DHT22;19219;44.500;11.188;2022-09-20T11:27:01;25.30;91.00
32865;DHT22;19219;44.500;11.188;2022-09-20T11:29:32;25.50;90.70
32865;DHT22;19219;44.500;11.188;2022-09-20T11:32:43;25.50;91.20
32865;DHT22;19219;44.500;11.188;2022-09-20T11:34:50;25.70;91.20
32865;DHT22;19219;44.500;11.188;2022-09-20T11:37:16;25.80;91.10
32865;DHT22;19219;44.500;11.188;2022-09-20T11:39:49;25.40;91.50
32865;DHT22;19219;44.500;11.188;2022-09-20T11:42:17;25.00;90.90
32865;DHT22;19219;44.500;11.188;2022-09-20T11:44:44;24.80;92.10
32865;DHT22;19219;44.500;11.188;2022-09-20T11:52:24;24.80;93.00
32865;DHT22;19219;44.500;11.188;2022-09-20T11:57:19;25.00;93.40
32865;DHT22;19219;44.500;11.188;2022-09-20T11:59:51;24.80;92.60
32865;DHT22;19219;44.500;11.188;2022-09-20T12:04:46;25.10;93.40
32865;DHT22;19219;44.500;11.188;2022-09-20T12:07:17;24.80;92.70
32865;DHT22;19219;44.500;11.188;2022-09-20T12:14:56;24.60;94.60
32865;DHT22;19219;44.500;11.188;2022-09-20T12:22:51;24.70;93.40
32865;DHT22;19219;44.500;11.188;2022-09-20T12:28:14;24.70;92.90
32865;DHT22;19219;44.500;11.188;2022-09-20T12:30:40;24.60;92.70
32865;DHT22;19219;44.500;11.188;2022-09-20T12:33:07;24.30;92.40
32865;DHT22;19219;44.500;11.188;2022-09-20T12:35:52;24.30;93.30
32865;DHT22;19219;44.500;11.188;2022-09-20T12:43:24;24.50;92.80
32865;DHT22;19219;44.500;11.188;2022-09-20T12:45:51;24.60;93.40
32865;DHT22;19219;44.500;11.188;2022-09-20T12:48:17;24.90;93.20
32865;DHT22;19219;44.500;11.188;2022-09-20T12:50:58;24.90;91.90
32865;DHT22;19219;44.500;11.188;2022-09-20T12:53:56;24.80;92.30
32865;DHT22;19219;44.500;11.188;2022-09-20T12:56:22;24.50;92.50
32865;DHT22;19219;44.500;11.188;2022-09-20T12:58:52;24.50;92.50
32865;DHT22;19219;44.500;11.188;2022-09-20T13:03:45;24.70;91.30
32865;DHT22;19219;44.500;11.188;2022-09-20T13:11:16;24.80;90.10
32865;DHT22;19219;44.500;11.188;2022-09-20T13:16:15;24.90;89.00
32865;DHT22;19219;44.500;11.188;2022-09-20T13:18:44;25.10;88.80
32865;DHT22;19219;44.500;11.188;2022-09-20T13:21:10;25.20;88.00
32865;DHT22;19219;44.500;11.188;2022-09-20T13:23:43;25.20;87.50
32865;DHT22;19219;44.500;11.188;2022-09-20T13:26:09;25.20;86.80
32865;DHT22;19219;44.500;11.188;2022-09-20T13:28:39;25.30;87.00
32865;DHT22;19219;44.500;11.188;2022-09-20T13:33:42;25.50;84.30
32865;DHT22;19219;44.500;11.188;2022-09-20T13:36:08;25.60;84.00
32865;DHT22;19219;44.500;11.188;2022-09-20T13:38:33;25.50;82.90
32865;DHT22;19219;44.500;11.188;2022-09-20T13:41:02;25.60;82.80
32865;DHT22;19219;44.500;11.188;2022-09-20T13:43:36;25.60;82.80
32865;DHT22;19219;44.500;11.188;2022-09-20T13:48:35;25.20;81.60
32865;DHT22;19219;44.500;11.188;2022-09-20T13:51:01;25.10;82.90
32865;DHT22;19219;44.500;11.188;2022-09-20T13:53:27;25.20;83.10
32865;DHT22;19219;44.500;11.188;2022-09-20T13:55:55;25.20;82.70
32865;DHT22;19219;44.500;11.188;2022-09-20T13:58:22;25.20;80.30
32865;DHT22;19219;44.500;11.188;2022-09-20T14:00:53;25.30;80.20
32865;DHT22;19219;44.500;11.188;2022-09-20T14:03:19;25.50;79.50
32865;DHT22;19219;44.500;11.188;2022-09-20T14:05:46;25.30;79.70
32865;DHT22;19219;44.500;11.188;2022-09-20T14:08:14;25.20;76.00
32865;DHT22;19219;44.500;11.188;2022-09-20T14:10:41;25.30;75.30
32865;DHT22;19219;44.500;11.188;2022-09-20T14:13:12;25.50;76.10
32865;DHT22;19219;44.500;11.188;2022-09-20T14:15:44;25.20;74.10
32865;DHT22;19219;44.500;11.188;2022-09-20T14:18:12;25.20;73.30
32865;DHT22;19219;44.500;11.188;2022-09-20T14:20:42;25.40;75.20
32865;DHT22;19219;44.500;11.188;2022-09-20T14:23:21;25.30;73.90
32865;DHT22;19219;44.500;11.188;2022-09-20T14:26:07;25.30;76.00
32865;DHT22;19219;44.500;11.188;2022-09-20T14:28:44;25.40;77.20
32865;DHT22;19219;44.500;11.188;2022-09-20T14:31:31;25.60;75.40
32865;DHT22;19219;44.500;11.188;2022-09-20T14:34:00;25.60;76.30
32865;DHT22;19219;44.500;11.188;2022-09-20T14:36:27;25.70;75.20
32865;DHT22;19219;44.500;11.188;2022-09-20T14:38:55;25.70;74.80
32865;DHT22;19219;44.500;11.188;2022-09-20T14:41:31;25.60;75.00
32865;DHT22;19219;44.500;11.188;2022-09-20T14:43:58;25.60;73.10
32865;DHT22;19219;44.500;11.188;2022-09-20T14:46:30;25.60;75.20
32865;DHT22;19219;44.500;11.188;2022-09-20T14:51:41;25.60;71.30
32865;DHT22;19219;44.500;11.188;2022-09-20T14:56:36;25.50;71.00
32865;DHT22;19219;44.500;11.188;2022-09-20T14:59:06;25.50;71.50
32865;DHT22;19219;44.500;11.188;2022-09-20T15:01:44;25.20;71.60
32865;DHT22;19219;44.500;11.188;2022-09-20T15:04:18;25.30;72.10
32865;DHT22;19219;44.500;11.188;2022-09-20T15:06:45;25.40;72.70
32865;DHT22;19219;44.500;11.188;2022-09-20T15:09:11;25.50;72.50
32865;DHT22;19219;44.500;11.188;2022-09-20T15:11:36;25.60;71.00
32865;DHT22;19219;44.500;11.188;2022-09-20T15:14:02;25.60;69.70
32865;DHT22;19219;44.500;11.188;2022-09-20T15:16:27;25.60;68.70
32865;DHT22;19219;44.500;11.188;2022-09-20T15:18:54;25.50;67.30
32865;DHT22;19219;44.500;11.188;2022-09-20T15:21:19;25.60;69.20
32865;DHT22;19219;44.500;11.188;2022-09-20T15:23:45;25.40;67.10
32865;DHT22;19219;44.500;11.188;2022-09-20T15:26:11;25.20;69.00
32865;DHT22;19219;44.500;11.188;2022-09-20T15:28:38;25.40;69.70
32865;DHT22;19219;44.500;11.188;2022-09-20T15:31:04;25.30;69.90
32865;DHT22;19219;44.500;11.188;2022-09-20T15:33:30;25.30;68.80
32865;DHT22;19219;44.500;11.188;2022-09-20T15:35:59;25.40;69.10
32865;DHT22;19219;44.500;11.188;2022-09-20T15:38:26;25.50;69.30
32865;DHT22;19219;44.500;11.188;2022-09-20T15:40:52;25.60;68.70
32865;DHT22;19219;44.500;11.188;2022-09-20T15:43:18;25.60;67.60
32865;DHT22;19219;44.500;11.188;2022-09-20T15:45:47;25.40;67.10
32865;DHT22;19219;44.500;11.188;2022-09-20T15:48:14;25.30;66.70
32865;DHT22;19219;44.500;11.188;2022-09-20T15:50:40;25.20;66.10
32865;DHT22;19219;44.500;11.188;2022-09-20T15:53:07;25.10;67.40
32865;DHT22;19219;44.500;11.188;2022-09-20T15:55:35;25.10;67.00
32865;DHT22;19219;44.500;11.188;2022-09-20T15:58:01;25.00;65.90
32865;DHT22;19219;44.500;11.188;2022-09-20T16:00:27;25.00;64.90
32865;DHT22;19219;44.500;11.188;2022-09-20T16:02:53;25.00;64.70
32865;DHT22;19219;44.500;11.188;2022-09-20T16:05:18;24.90;64.90
32865;DHT22;19219;44.500;11.188;2022-09-20T16:07:44;24.90;64.30
32865;DHT22;19219;44.500;11.188;2022-09-20T16:10:11;24.90;66.10
32865;DHT22;19219;44.500;11.188;2022-09-20T16:12:36;24.80;67.40
32865;DHT22;19219;44.500;11.188;2022-09-20T16:15:02;24.70;68.10
32865;DHT22;19219;44.500;11.188;2022-09-20T16:17:28;24.70;69.90
32865;DHT22;19219;44.500;11.188;2022-09-20T16:20:12;24.60;69.60
32865;DHT22;19219;44.500;11.188;2022-09-20T16:22:37;24.60;70.90
32865;DHT22;19219;44.500;11.188;2022-09-20T16:25:03;24.50;70.20
32865;DHT22;19219;44.500;11.188;2022-09-20T16:27:30;24.40;69.30
32865;DHT22;19219;44.500;11.188;2022-09-20T16:29:59;24.20;70.70
32865;DHT22;19219;44.500;11.188;2022-09-20T16:32:25;24.10;70.80
32865;DHT22;19219;44.500;11.188;2022-09-20T16:34:50;24.10;71.00
32865;DHT22;19219;44.500;11.188;2022-09-20T16:37:19;24.00;71.50
32865;DHT22;19219;44.500;11.188;2022-09-20T16:39:44;23.80;71.10
32865;DHT22;19219;44.500;11.188;2022-09-20T16:42:10;23.90;71.60
32865;DHT22;19219;44.500;11.188;2022-09-20T16:44:38;23.80;71.30
32865;DHT22;19219;44.500;11.188;2022-09-20T16:47:04;23.60;70.90
32865;DHT22;19219;44.500;11.188;2022-09-20T16:49:33;23.50;72.00
32865;DHT22;19219;44.500;11.188;2022-09-20T16:52:00;23.40;72.80
32865;DHT22;19219;44.500;11.188;2022-09-20T16:54:26;23.30;73.40
32865;DHT22;19219;44.500;11.188;2022-09-20T16:56:51;23.30;74.50
32865;DHT22;19219;44.500;11.188;2022-09-20T16:59:18;23.30;75.10
32865;DHT22;19219;44.500;11.188;2022-09-20T17:01:46;23.20;75.80
32865;DHT22;19219;44.500;11.188;2022-09-20T17:04:12;23.20;77.40
32865;DHT22;19219;44.500;11.188;2022-09-20T17:06:38;23.10;79.10
32865;DHT22;19219;44.500;11.188;2022-09-20T17:09:04;22.90;81.50
32865;DHT22;19219;44.500;11.188;2022-09-20T17:11:31;22.70;83.00
32865;DHT22;19219;44.500;11.188;2022-09-20T17:13:57;22.50;84.20
32865;DHT22;19219;44.500;11.188;2022-09-20T17:16:24;22.20;88.30
32865;DHT22;19219;44.500;11.188;2022-09-20T17:18:53;22.00;90.70
32865;DHT22;19219;44.500;11.188;2022-09-20T17:21:19;21.60;92.10
32865;DHT22;19219;44.500;11.188;2022-09-20T17:23:46;21.30;93.70
32865;DHT22;19219;44.500;11.188;2022-09-20T17:28:42;20.70;97.20
32865;DHT22;19219;44.500;11.188;2022-09-20T17:31:09;20.40;98.20
32865;DHT22;19219;44.500;11.188;2022-09-20T17:33:36;20.20;99.40
32865;DHT22;19219;44.500;11.188;2022-09-20T17:36:02;20.10;99.90
32865;DHT22;19219;44.500;11.188;2022-09-20T17:38:28;19.90;99.90
32865;DHT22;19219;44.500;11.188;2022-09-20T17:41:09;19.70;99.90
32865;DHT22;19219;44.500;11.188;2022-09-20T17:43:36;19.60;99.90
32865;DHT22;19219;44.500;11.188;2022-09-20T17:48:36;19.30;99.90
32865;DHT22;19219;44.500;11.188;2022-09-20T17:51:02;19.30;99.90
32865;DHT22;19219;44.500;11.188;2022-09-20T17:53:29;19.10;99.90
32865;DHT22;19219;44.500;11.188;2022-09-20T17:55:55;19.00;99.90
32865;DHT22;19219;44.500;11.188;2022-09-20T17:58:21;18.90;99.90
32865;DHT22;19219;44.500;11.188;2022-09-20T18:00:47;18.80;99.90
32865;DHT22;19219;44.500;11.188;2022-09-20T18:03:13;18.80;99.90
32865;DHT22;19219;44.500;11.188;2022-09-20T18:05:39;18.70;99.90
32865;DHT22;19219;44.500;11.188;2022-09-20T18:08:04;18.70;99.90
32865;DHT22;19219;44.500;11.188;2022-09-20T18:10:30;18.60;99.90
32865;DHT22;19219;44.500;11.188;2022-09-20T18:12:55;18.50;99.90
32865;DHT22;19219;44.500;11.188;2022-09-20T18:15:21;18.40;99.90
32865;DHT22;19219;44.500;11.188;2022-09-20T18:17:48;18.30;99.90
32865;DHT22;19219;44.500;11.188;2022-09-20T18:20:13;18.30;99.90
32865;DHT22;19219;44.500;11.188;2022-09-20T18:22:39;18.20;99.90
32865;DHT22;19219;44.500;11.188;2022-09-20T18:25:04;18.10;99.90
32865;DHT22;19219;44.500;11.188;2022-09-20T18:27:30;18.00;99.90
32865;DHT22;19219;44.500;11.188;2022-09-20T18:29:58;17.90;99.90
32865;DHT22;19219;44.500;11.188;2022-09-20T18:32:24;17.90;99.90
32865;DHT22;19219;44.500;11.188;2022-09-20T18:34:54;17.90;99.90
32865;DHT22;19219;44.500;11.188;2022-09-20T18:37:19;18.00;99.90
32865;DHT22;19219;44.500;11.188;2022-09-20T18:39:45;18.00;99.90
32865;DHT22;19219;44.500;11.188;2022-09-20T18:42:10;17.80;99.90
32865;DHT22;19219;44.500;11.188;2022-09-20T18:44:36;17.80;99.90
32865;DHT22;19219;44.500;11.188;2022-09-20T18:47:02;17.80;99.90
32865;DHT22;19219;44.500;11.188;2022-09-20T18:49:28;17.80;99.90
32865;DHT22;19219;44.500;11.188;2022-09-20T18:51:54;17.80;99.90
32865;DHT22;19219;44.500;11.188;2022-09-20T18:54:20;17.90;99.90
32865;DHT22;19219;44.500;11.188;2022-09-20T18:56:47;17.90;99.90
32865;DHT22;19219;44.500;11.188;2022-09-20T18:59:16;18.00;99.90
32865;DHT22;19219;44.500;11.188;2022-09-20T19:09:38;18.20;99.90
32865;DHT22;19219;44.500;11.188;2022-09-20T19:12:39;18.20;99.90
32865;DHT22;19219;44.500;11.188;2022-09-20T19:20:28;18.30;99.90
32865;DHT22;19219;44.500;11.188;2022-09-20T19:23:02;18.40;99.90
32865;DHT22;19219;44.500;11.188;2022-09-20T19:25:31;18.40;99.90
32865;DHT22;19219;44.500;11.188;2022-09-20T19:28:03;18.30;99.90
32865;DHT22;19219;44.500;11.188;2022-09-20T19:30:29;18.20;99.90
32865;DHT22;19219;44.500;11.188;2022-09-20T19:32:55;18.00;99.90
32865;DHT22;19219;44.500;11.188;2022-09-20T19:35:21;17.80;99.90
32865;DHT22;19219;44.500;11.188;2022-09-20T19:37:53;17.50;99.90
32865;DHT22;19219;44.500;11.188;2022-09-20T19:43:09;17.00;99.90
32865;DHT22;19219;44.500;11.188;2022-09-20T19:48:16;16.80;99.90
32865;DHT22;19219;44.500;11.188;2022-09-20T19:50:44;16.60;99.90
32865;DHT22;19219;44.500;11.188;2022-09-20T19:53:14;16.50;99.90
32865;DHT22;19219;44.500;11.188;2022-09-20T19:55:41;16.50;99.90
32865;DHT22;19219;44.500;11.188;2022-09-20T19:58:10;16.30;99.90
32865;DHT22;19219;44.500;11.188;2022-09-20T20:00:36;16.30;99.90
32865;DHT22;19219;44.500;11.188;2022-09-20T20:03:02;16.30;99.90
32865;DHT22;19219;44.500;11.188;2022-09-20T20:05:27;16.30;99.90
32865;DHT22;19219;44.500;11.188;2022-09-20T20:10:44;16.30;99.90
32865;DHT22;19219;44.500;11.188;2022-09-20T20:16:19;16.00;99.90
32865;DHT22;19219;44.500;11.188;2022-09-20T20:21:40;15.80;99.90
32865;DHT22;19219;44.500;11.188;2022-09-20T20:26:54;15.70;99.90
32865;DHT22;19219;44.500;11.188;2022-09-20T20:29:20;15.60;99.90
32865;DHT22;19219;44.500;11.188;2022-09-20T20:31:45;15.60;99.90
32865;DHT22;19219;44.500;11.188;2022-09-20T20:34:11;15.60;99.90
32865;DHT22;19219;44.500;11.188;2022-09-20T20:36:41;15.50;99.90
32865;DHT22;19219;44.500;11.188;2022-09-20T20:39:06;15.50;99.90
32865;DHT22;19219;44.500;11.188;2022-09-20T20:41:32;15.30;99.90
32865;DHT22;19219;44.500;11.188;2022-09-20T20:43:57;15.20;99.90
32865;DHT22;19219;44.500;11.188;2022-09-20T20:46:23;15.10;99.90
32865;DHT22;19219;44.500;11.188;2022-09-20T20:48:49;15.00;99.90
32865;DHT22;19219;44.500;11.188;2022-09-20T20:51:16;15.00;99.90
32865;DHT22;19219;44.500;11.188;2022-09-20T20:53:43;15.00;99.90
32865;DHT22;19219;44.500;11.188;2022-09-20T20:56:12;15.10;99.90
32865;DHT22;19219;44.500;11.188;2022-09-20T20:58:39;15.10;99.90
32865;DHT22;19219;44.500;11.188;2022-09-20T21:01:09;15.00;99.90
32865;DHT22;19219;44.500;11.188;2022-09-20T21:03:35;15.00;99.90
32865;DHT22;19219;44.500;11.188;2022-09-20T21:06:01;14.90;99.90
32865;DHT22;19219;44.500;11.188;2022-09-20T21:08:29;14.90;99.90
32865;DHT22;19219;44.500;11.188;2022-09-20T21:10:58;14.80;99.90
32865;DHT22;19219;44.500;11.188;2022-09-20T21:13:23;14.80;99.90